sensor_id;sensor_type;location;lat;lon;timestamp;P1;durP1;ratioP1;P2;durP2;ratioP2
14209;SDS011;7188;56.070;12.698;2023-08-24T00:00:41;3.30;;;1.53;;
14209;SDS011;7188;56.070;12.698;2023-08-24T00:03:08;3.43;;;1.40;;
14209;SDS011;7188;56.070;12.698;2023-08-24T00:05:34;2.92;;;1.00;;
14209;SDS011;7188;56.070;12.698;2023-08-24T00:08:07;3.17;;;0.87;;
14209;SDS011;7188;56.070;12.698;2023-08-24T00:10:37;5.33;;;1.20;;
14209;SDS011;7188;56.070;12.698;2023-08-24T00:13:03;4.67;;;1.00;;
14209;SDS011;7188;56.070;12.698;2023-08-24T00:15:29;6.80;;;1.20;;
14209;SDS011;7188;56.070;12.698;2023-08-24T00:18:01;1.70;;;1.00;;
14209;SDS011;7188;56.070;12.698;2023-08-24T00:20:27;2.17;;;1.37;;
14209;SDS011;7188;56.070;12.698;2023-08-24T00:22:53;3.03;;;0.87;;
14209;SDS011;7188;56.070;12.698;2023-08-24T00:25:19;5.40;;;1.10;;
14209;SDS011;7188;56.070;12.698;2023-08-24T00:27:45;4.57;;;1.17;;
14209;SDS011;7188;56.070;12.698;2023-08-24T00:30:10;4.80;;;1.60;;
14209;SDS011;7188;56.070;12.698;2023-08-24T00:32:37;2.50;;;0.87;;
14209;SDS011;7188;56.070;12.698;2023-08-24T00:35:08;2.37;;;0.80;;
14209;SDS011;7188;56.070;12.698;2023-08-24T00:37:35;3.00;;;1.08;;
14209;SDS011;7188;56.070;12.698;2023-08-24T00:40:01;2.17;;;1.13;;
14209;SDS011;7188;56.070;12.698;2023-08-24T00:42:38;3.28;;;1.25;;
14209;SDS011;7188;56.070;12.698;2023-08-24T00:45:07;2.40;;;0.93;;
14209;SDS011;7188;56.070;12.698;2023-08-24T00:47:34;5.17;;;1.33;;
14209;SDS011;7188;56.070;12.698;2023-08-24T00:50:01;5.63;;;1.33;;
14209;SDS011;7188;56.070;12.698;2023-08-24T00:52:29;5.13;;;1.10;;
14209;SDS011;7188;56.070;12.698;2023-08-24T00:54:57;3.33;;;1.20;;
14209;SDS011;7188;56.070;12.698;2023-08-24T00:57:24;2.50;;;1.17;;
14209;SDS011;7188;56.070;12.698;2023-08-24T00:59:51;2.13;;;1.27;;
14209;SDS011;7188;56.070;12.698;2023-08-24T01:02:16;3.50;;;1.07;;
14209;SDS011;7188;56.070;12.698;2023-08-24T01:04:42;4.00;;;1.10;;
14209;SDS011;7188;56.070;12.698;2023-08-24T01:10:09;4.03;;;1.27;;
14209;SDS011;7188;56.070;12.698;2023-08-24T01:15:32;2.95;;;0.80;;
14209;SDS011;7188;56.070;12.698;2023-08-24T01:18:00;3.97;;;0.90;;
14209;SDS011;7188;56.070;12.698;2023-08-24T01:20:39;3.40;;;1.23;;
14209;SDS011;7188;56.070;12.698;2023-08-24T01:23:09;3.97;;;0.90;;
14209;SDS011;7188;56.070;12.698;2023-08-24T01:25:52;3.27;;;1.00;;
14209;SDS011;7188;56.070;12.698;2023-08-24T01:28:22;3.90;;;0.90;;
14209;SDS011;7188;56.070;12.698;2023-08-24T01:30:48;4.70;;;1.10;;
14209;SDS011;7188;56.070;12.698;2023-08-24T01:33:24;4.27;;;0.93;;
14209;SDS011;7188;56.070;12.698;2023-08-24T01:35:50;6.23;;;1.17;;
14209;SDS011;7188;56.070;12.698;2023-08-24T01:38:15;4.87;;;1.20;;
14209;SDS011;7188;56.070;12.698;2023-08-24T01:40:53;4.20;;;1.00;;
14209;SDS011;7188;56.070;12.698;2023-08-24T01:43:20;3.13;;;1.00;;
14209;SDS011;7188;56.070;12.698;2023-08-24T01:45:48;3.25;;;0.90;;
14209;SDS011;7188;56.070;12.698;2023-08-24T01:48:16;1.80;;;0.70;;
14209;SDS011;7188;56.070;12.698;2023-08-24T01:50:42;2.50;;;1.17;;
14209;SDS011;7188;56.070;12.698;2023-08-24T01:53:09;4.40;;;1.10;;
14209;SDS011;7188;56.070;12.698;2023-08-24T01:55:34;3.70;;;1.00;;
14209;SDS011;7188;56.070;12.698;2023-08-24T01:58:00;5.97;;;1.20;;
14209;SDS011;7188;56.070;12.698;2023-08-24T02:00:26;3.05;;;1.45;;
14209;SDS011;7188;56.070;12.698;2023-08-24T02:02:52;3.63;;;1.10;;
14209;SDS011;7188;56.070;12.698;2023-08-24T02:05:17;3.67;;;1.23;;
14209;SDS011;7188;56.070;12.698;2023-08-24T02:07:43;1.98;;;0.82;;
14209;SDS011;7188;56.070;12.698;2023-08-24T02:10:09;3.83;;;0.97;;
14209;SDS011;7188;56.070;12.698;2023-08-24T02:12:34;2.17;;;1.00;;
14209;SDS011;7188;56.070;12.698;2023-08-24T02:15:00;1.90;;;1.20;;
14209;SDS011;7188;56.070;12.698;2023-08-24T02:17:26;3.80;;;1.57;;
14209;SDS011;7188;56.070;12.698;2023-08-24T02:19:52;2.30;;;1.47;;
14209;SDS011;7188;56.070;12.698;2023-08-24T02:22:17;5.00;;;1.40;;
14209;SDS011;7188;56.070;12.698;2023-08-24T02:24:43;3.60;;;1.20;;
14209;SDS011;7188;56.070;12.698;2023-08-24T02:27:09;3.37;;;1.20;;
14209;SDS011;7188;56.070;12.698;2023-08-24T02:29:35;2.73;;;1.73;;
14209;SDS011;7188;56.070;12.698;2023-08-24T02:32:02;2.83;;;1.30;;
14209;SDS011;7188;56.070;12.698;2023-08-24T02:34:27;2.77;;;1.33;;
14209;SDS011;7188;56.070;12.698;2023-08-24T02:36:53;1.43;;;0.93;;
14209;SDS011;7188;56.070;12.698;2023-08-24T02:39:19;7.63;;;1.40;;
14209;SDS011;7188;56.070;12.698;2023-08-24T02:41:44;3.77;;;1.30;;
14209;SDS011;7188;56.070;12.698;2023-08-24T02:44:10;3.40;;;1.20;;
14209;SDS011;7188;56.070;12.698;2023-08-24T02:46:35;2.33;;;1.57;;
14209;SDS011;7188;56.070;12.698;2023-08-24T02:49:01;6.13;;;1.30;;
14209;SDS011;7188;56.070;12.698;2023-08-24T02:51:27;5.10;;;1.37;;
14209;SDS011;7188;56.070;12.698;2023-08-24T02:53:52;3.57;;;1.30;;
14209;SDS011;7188;56.070;12.698;2023-08-24T02:56:18;6.23;;;1.60;;
14209;SDS011;7188;56.070;12.698;2023-08-24T02:58:44;3.83;;;1.40;;
14209;SDS011;7188;56.070;12.698;2023-08-24T03:01:09;2.93;;;1.73;;
14209;SDS011;7188;56.070;12.698;2023-08-24T03:03:36;2.80;;;1.57;;
14209;SDS011;7188;56.070;12.698;2023-08-24T03:06:08;3.97;;;1.57;;
14209;SDS011;7188;56.070;12.698;2023-08-24T03:08:34;4.23;;;1.73;;
14209;SDS011;7188;56.070;12.698;2023-08-24T03:13:48;5.00;;;1.60;;
14209;SDS011;7188;56.070;12.698;2023-08-24T03:16:14;4.57;;;1.30;;
14209;SDS011;7188;56.070;12.698;2023-08-24T03:18:39;2.63;;;1.13;;
14209;SDS011;7188;56.070;12.698;2023-08-24T03:21:05;3.80;;;1.20;;
14209;SDS011;7188;56.070;12.698;2023-08-24T03:23:31;4.43;;;2.47;;
14209;SDS011;7188;56.070;12.698;2023-08-24T03:25:57;4.23;;;1.37;;
14209;SDS011;7188;56.070;12.698;2023-08-24T03:28:23;6.80;;;1.67;;
14209;SDS011;7188;56.070;12.698;2023-08-24T03:30:49;3.50;;;1.27;;
14209;SDS011;7188;56.070;12.698;2023-08-24T03:33:16;3.50;;;1.30;;
14209;SDS011;7188;56.070;12.698;2023-08-24T03:35:42;6.13;;;1.87;;
14209;SDS011;7188;56.070;12.698;2023-08-24T03:38:08;3.43;;;1.37;;
14209;SDS011;7188;56.070;12.698;2023-08-24T03:40:34;1.03;;;0.83;;
14209;SDS011;7188;56.070;12.698;2023-08-24T03:43:01;8.10;;;1.80;;
14209;SDS011;7188;56.070;12.698;2023-08-24T03:45:27;2.53;;;1.20;;
14209;SDS011;7188;56.070;12.698;2023-08-24T03:47:53;3.80;;;1.00;;
14209;SDS011;7188;56.070;12.698;2023-08-24T03:50:19;3.10;;;1.20;;
14209;SDS011;7188;56.070;12.698;2023-08-24T03:52:45;1.90;;;1.00;;
14209;SDS011;7188;56.070;12.698;2023-08-24T03:55:11;4.30;;;1.30;;
14209;SDS011;7188;56.070;12.698;2023-08-24T03:57:36;2.90;;;1.03;;
14209;SDS011;7188;56.070;12.698;2023-08-24T04:00:03;6.37;;;1.50;;
14209;SDS011;7188;56.070;12.698;2023-08-24T04:02:32;4.43;;;1.20;;
14209;SDS011;7188;56.070;12.698;2023-08-24T04:04:58;2.87;;;1.30;;
14209;SDS011;7188;56.070;12.698;2023-08-24T04:07:23;4.10;;;1.40;;
14209;SDS011;7188;56.070;12.698;2023-08-24T04:09:49;4.53;;;1.40;;
14209;SDS011;7188;56.070;12.698;2023-08-24T04:12:14;3.17;;;1.20;;
14209;SDS011;7188;56.070;12.698;2023-08-24T04:14:40;1.90;;;1.20;;
14209;SDS011;7188;56.070;12.698;2023-08-24T04:17:06;3.17;;;1.67;;
14209;SDS011;7188;56.070;12.698;2023-08-24T04:19:31;3.67;;;1.13;;
14209;SDS011;7188;56.070;12.698;2023-08-24T04:21:57;6.57;;;1.30;;
14209;SDS011;7188;56.070;12.698;2023-08-24T04:24:23;3.80;;;1.20;;
14209;SDS011;7188;56.070;12.698;2023-08-24T04:26:50;2.80;;;1.20;;
14209;SDS011;7188;56.070;12.698;2023-08-24T04:29:16;3.20;;;1.30;;
14209;SDS011;7188;56.070;12.698;2023-08-24T04:31:42;3.70;;;1.30;;
14209;SDS011;7188;56.070;12.698;2023-08-24T04:34:07;5.07;;;1.50;;
14209;SDS011;7188;56.070;12.698;2023-08-24T04:36:34;2.37;;;1.07;;
14209;SDS011;7188;56.070;12.698;2023-08-24T04:39:00;3.53;;;1.60;;
14209;SDS011;7188;56.070;12.698;2023-08-24T04:41:27;3.47;;;1.30;;
14209;SDS011;7188;56.070;12.698;2023-08-24T04:43:52;3.40;;;1.40;;
14209;SDS011;7188;56.070;12.698;2023-08-24T04:46:18;5.80;;;1.57;;
14209;SDS011;7188;56.070;12.698;2023-08-24T04:48:44;3.27;;;1.57;;
14209;SDS011;7188;56.070;12.698;2023-08-24T04:51:10;2.53;;;1.30;;
14209;SDS011;7188;56.070;12.698;2023-08-24T04:53:35;5.73;;;1.63;;
14209;SDS011;7188;56.070;12.698;2023-08-24T04:56:01;4.53;;;1.60;;
14209;SDS011;7188;56.070;12.698;2023-08-24T04:58:33;7.25;;;2.53;;
14209;SDS011;7188;56.070;12.698;2023-08-24T05:00:59;7.57;;;2.37;;
14209;SDS011;7188;56.070;12.698;2023-08-24T05:03:25;7.70;;;1.60;;
14209;SDS011;7188;56.070;12.698;2023-08-24T05:05:51;6.77;;;1.77;;
14209;SDS011;7188;56.070;12.698;2023-08-24T05:08:16;5.17;;;1.97;;
14209;SDS011;7188;56.070;12.698;2023-08-24T05:10:43;5.30;;;1.90;;
14209;SDS011;7188;56.070;12.698;2023-08-24T05:13:09;6.37;;;1.47;;
14209;SDS011;7188;56.070;12.698;2023-08-24T05:15:34;4.17;;;1.40;;
14209;SDS011;7188;56.070;12.698;2023-08-24T05:18:00;6.47;;;1.90;;
14209;SDS011;7188;56.070;12.698;2023-08-24T05:20:26;3.72;;;1.10;;
14209;SDS011;7188;56.070;12.698;2023-08-24T05:22:52;4.10;;;1.23;;
14209;SDS011;7188;56.070;12.698;2023-08-24T05:25:20;3.60;;;1.10;;
14209;SDS011;7188;56.070;12.698;2023-08-24T05:27:46;4.73;;;1.47;;
14209;SDS011;7188;56.070;12.698;2023-08-24T05:30:12;3.80;;;1.33;;
14209;SDS011;7188;56.070;12.698;2023-08-24T05:32:38;5.23;;;1.30;;
14209;SDS011;7188;56.070;12.698;2023-08-24T05:35:07;4.63;;;1.50;;
14209;SDS011;7188;56.070;12.698;2023-08-24T05:37:33;3.97;;;1.27;;
14209;SDS011;7188;56.070;12.698;2023-08-24T05:40:00;4.80;;;1.37;;
14209;SDS011;7188;56.070;12.698;2023-08-24T05:42:26;6.80;;;1.25;;
14209;SDS011;7188;56.070;12.698;2023-08-24T05:44:52;4.30;;;1.27;;
14209;SDS011;7188;56.070;12.698;2023-08-24T05:47:17;4.53;;;1.57;;
14209;SDS011;7188;56.070;12.698;2023-08-24T05:49:43;4.13;;;1.70;;
14209;SDS011;7188;56.070;12.698;2023-08-24T05:52:12;5.93;;;1.47;;
14209;SDS011;7188;56.070;12.698;2023-08-24T05:54:37;6.10;;;2.00;;
14209;SDS011;7188;56.070;12.698;2023-08-24T05:57:03;4.77;;;1.57;;
14209;SDS011;7188;56.070;12.698;2023-08-24T05:59:30;2.90;;;1.33;;
14209;SDS011;7188;56.070;12.698;2023-08-24T06:02:08;4.63;;;1.57;;
14209;SDS011;7188;56.070;12.698;2023-08-24T06:04:34;4.67;;;1.87;;
14209;SDS011;7188;56.070;12.698;2023-08-24T06:07:00;4.07;;;1.47;;
14209;SDS011;7188;56.070;12.698;2023-08-24T06:09:25;5.28;;;1.20;;
14209;SDS011;7188;56.070;12.698;2023-08-24T06:11:51;5.17;;;1.53;;
14209;SDS011;7188;56.070;12.698;2023-08-24T06:14:16;7.78;;;1.30;;
14209;SDS011;7188;56.070;12.698;2023-08-24T06:16:42;1.65;;;1.08;;
14209;SDS011;7188;56.070;12.698;2023-08-24T06:19:08;6.67;;;1.47;;
14209;SDS011;7188;56.070;12.698;2023-08-24T06:21:34;6.75;;;1.08;;
14209;SDS011;7188;56.070;12.698;2023-08-24T06:23:59;2.80;;;1.20;;
14209;SDS011;7188;56.070;12.698;2023-08-24T06:26:26;1.25;;;0.70;;
14209;SDS011;7188;56.070;12.698;2023-08-24T06:28:51;3.43;;;1.13;;
14209;SDS011;7188;56.070;12.698;2023-08-24T06:31:17;4.78;;;1.35;;
14209;SDS011;7188;56.070;12.698;2023-08-24T06:33:43;2.57;;;1.20;;
14209;SDS011;7188;56.070;12.698;2023-08-24T06:36:08;2.60;;;0.90;;
14209;SDS011;7188;56.070;12.698;2023-08-24T06:38:34;5.37;;;1.10;;
14209;SDS011;7188;56.070;12.698;2023-08-24T06:41:00;2.43;;;0.93;;
14209;SDS011;7188;56.070;12.698;2023-08-24T06:43:26;4.65;;;1.38;;
14209;SDS011;7188;56.070;12.698;2023-08-24T06:45:51;5.97;;;1.27;;
14209;SDS011;7188;56.070;12.698;2023-08-24T06:48:19;3.17;;;1.27;;
14209;SDS011;7188;56.070;12.698;2023-08-24T06:50:44;1.45;;;0.70;;
14209;SDS011;7188;56.070;12.698;2023-08-24T06:53:10;2.25;;;0.80;;
14209;SDS011;7188;56.070;12.698;2023-08-24T06:55:35;1.65;;;0.80;;
14209;SDS011;7188;56.070;12.698;2023-08-24T06:58:02;1.93;;;0.80;;
14209;SDS011;7188;56.070;12.698;2023-08-24T07:00:30;0.77;;;0.70;;
14209;SDS011;7188;56.070;12.698;2023-08-24T07:02:56;2.88;;;1.00;;
14209;SDS011;7188;56.070;12.698;2023-08-24T07:05:22;2.30;;;0.90;;
14209;SDS011;7188;56.070;12.698;2023-08-24T07:07:51;2.97;;;0.83;;
14209;SDS011;7188;56.070;12.698;2023-08-24T07:10:17;5.67;;;0.80;;
14209;SDS011;7188;56.070;12.698;2023-08-24T07:12:43;3.57;;;1.03;;
14209;SDS011;7188;56.070;12.698;2023-08-24T07:15:10;4.63;;;0.73;;
14209;SDS011;7188;56.070;12.698;2023-08-24T07:17:36;2.40;;;0.80;;
14209;SDS011;7188;56.070;12.698;2023-08-24T07:20:02;3.47;;;0.73;;
14209;SDS011;7188;56.070;12.698;2023-08-24T07:22:33;2.27;;;0.60;;
14209;SDS011;7188;56.070;12.698;2023-08-24T07:25:00;1.33;;;0.60;;
14209;SDS011;7188;56.070;12.698;2023-08-24T07:27:26;1.37;;;0.53;;
14209;SDS011;7188;56.070;12.698;2023-08-24T07:29:53;2.00;;;0.70;;
14209;SDS011;7188;56.070;12.698;2023-08-24T07:32:19;1.07;;;0.70;;
14209;SDS011;7188;56.070;12.698;2023-08-24T07:34:44;3.07;;;0.90;;
14209;SDS011;7188;56.070;12.698;2023-08-24T07:37:10;0.60;;;0.60;;
14209;SDS011;7188;56.070;12.698;2023-08-24T07:39:35;2.67;;;0.63;;
14209;SDS011;7188;56.070;12.698;2023-08-24T07:42:02;1.53;;;0.80;;
14209;SDS011;7188;56.070;12.698;2023-08-24T07:44:28;2.37;;;0.63;;
14209;SDS011;7188;56.070;12.698;2023-08-24T07:46:54;1.42;;;0.60;;
14209;SDS011;7188;56.070;12.698;2023-08-24T07:49:20;1.83;;;0.80;;
14209;SDS011;7188;56.070;12.698;2023-08-24T07:51:46;0.87;;;0.80;;
14209;SDS011;7188;56.070;12.698;2023-08-24T07:54:12;3.00;;;0.87;;
14209;SDS011;7188;56.070;12.698;2023-08-24T07:56:38;2.60;;;0.80;;
14209;SDS011;7188;56.070;12.698;2023-08-24T07:59:03;1.10;;;0.60;;
14209;SDS011;7188;56.070;12.698;2023-08-24T08:01:29;0.95;;;0.50;;
14209;SDS011;7188;56.070;12.698;2023-08-24T08:03:55;1.70;;;0.60;;
14209;SDS011;7188;56.070;12.698;2023-08-24T08:06:21;1.13;;;0.60;;
14209;SDS011;7188;56.070;12.698;2023-08-24T08:08:47;1.38;;;0.70;;
14209;SDS011;7188;56.070;12.698;2023-08-24T08:11:15;1.23;;;0.60;;
14209;SDS011;7188;56.070;12.698;2023-08-24T08:13:41;2.37;;;0.90;;
14209;SDS011;7188;56.070;12.698;2023-08-24T08:16:06;1.83;;;0.75;;
14209;SDS011;7188;56.070;12.698;2023-08-24T08:18:32;1.47;;;0.60;;
14209;SDS011;7188;56.070;12.698;2023-08-24T08:20:59;1.90;;;0.65;;
14209;SDS011;7188;56.070;12.698;2023-08-24T08:23:25;2.33;;;0.70;;
14209;SDS011;7188;56.070;12.698;2023-08-24T08:25:51;1.92;;;0.52;;
14209;SDS011;7188;56.070;12.698;2023-08-24T08:28:17;2.13;;;0.68;;
14209;SDS011;7188;56.070;12.698;2023-08-24T08:30:43;2.45;;;0.65;;
14209;SDS011;7188;56.070;12.698;2023-08-24T08:33:09;1.88;;;0.70;;
14209;SDS011;7188;56.070;12.698;2023-08-24T08:35:37;2.22;;;0.50;;
14209;SDS011;7188;56.070;12.698;2023-08-24T08:38:05;1.48;;;0.55;;
14209;SDS011;7188;56.070;12.698;2023-08-24T08:40:32;4.57;;;0.70;;
14209;SDS011;7188;56.070;12.698;2023-08-24T08:43:02;2.80;;;0.60;;
14209;SDS011;7188;56.070;12.698;2023-08-24T08:45:28;3.05;;;0.60;;
14209;SDS011;7188;56.070;12.698;2023-08-24T08:47:57;1.80;;;0.68;;
14209;SDS011;7188;56.070;12.698;2023-08-24T08:50:24;1.83;;;0.50;;
14209;SDS011;7188;56.070;12.698;2023-08-24T08:52:50;2.30;;;0.63;;
14209;SDS011;7188;56.070;12.698;2023-08-24T08:55:16;3.93;;;0.60;;
14209;SDS011;7188;56.070;12.698;2023-08-24T08:57:43;4.30;;;0.70;;
14209;SDS011;7188;56.070;12.698;2023-08-24T09:00:11;1.63;;;0.53;;
14209;SDS011;7188;56.070;12.698;2023-08-24T09:02:40;3.23;;;0.97;;
14209;SDS011;7188;56.070;12.698;2023-08-24T09:05:08;3.77;;;1.03;;
14209;SDS011;7188;56.070;12.698;2023-08-24T09:07:34;2.00;;;0.60;;
14209;SDS011;7188;56.070;12.698;2023-08-24T09:10:01;2.28;;;0.50;;
14209;SDS011;7188;56.070;12.698;2023-08-24T09:12:31;2.30;;;0.50;;
14209;SDS011;7188;56.070;12.698;2023-08-24T09:14:58;2.75;;;0.90;;
14209;SDS011;7188;56.070;12.698;2023-08-24T09:17:23;1.92;;;0.70;;
14209;SDS011;7188;56.070;12.698;2023-08-24T09:19:50;1.93;;;0.70;;
14209;SDS011;7188;56.070;12.698;2023-08-24T09:22:18;5.40;;;0.80;;
14209;SDS011;7188;56.070;12.698;2023-08-24T09:24:44;4.82;;;0.80;;
14209;SDS011;7188;56.070;12.698;2023-08-24T09:27:18;5.10;;;1.13;;
14209;SDS011;7188;56.070;12.698;2023-08-24T09:29:50;3.60;;;0.90;;
14209;SDS011;7188;56.070;12.698;2023-08-24T09:32:23;3.73;;;0.53;;
14209;SDS011;7188;56.070;12.698;2023-08-24T09:34:49;3.70;;;0.90;;
14209;SDS011;7188;56.070;12.698;2023-08-24T09:37:16;3.13;;;0.82;;
14209;SDS011;7188;56.070;12.698;2023-08-24T09:39:42;5.13;;;0.60;;
14209;SDS011;7188;56.070;12.698;2023-08-24T09:42:09;2.13;;;0.53;;
14209;SDS011;7188;56.070;12.698;2023-08-24T09:44:34;2.17;;;0.70;;
14209;SDS011;7188;56.070;12.698;2023-08-24T09:47:00;3.30;;;0.80;;
14209;SDS011;7188;56.070;12.698;2023-08-24T09:49:26;4.50;;;0.98;;
14209;SDS011;7188;56.070;12.698;2023-08-24T09:51:56;3.10;;;0.93;;
14209;SDS011;7188;56.070;12.698;2023-08-24T09:54:24;2.92;;;0.70;;
14209;SDS011;7188;56.070;12.698;2023-08-24T09:56:54;4.53;;;0.60;;
14209;SDS011;7188;56.070;12.698;2023-08-24T09:59:23;2.55;;;0.85;;
14209;SDS011;7188;56.070;12.698;2023-08-24T10:01:51;3.00;;;0.60;;
14209;SDS011;7188;56.070;12.698;2023-08-24T10:04:22;6.57;;;0.57;;
14209;SDS011;7188;56.070;12.698;2023-08-24T10:06:51;1.88;;;0.52;;
14209;SDS011;7188;56.070;12.698;2023-08-24T10:09:35;4.35;;;0.52;;
14209;SDS011;7188;56.070;12.698;2023-08-24T10:12:09;2.20;;;0.70;;
14209;SDS011;7188;56.070;12.698;2023-08-24T10:14:39;2.37;;;0.50;;
14209;SDS011;7188;56.070;12.698;2023-08-24T10:17:20;3.20;;;0.55;;
14209;SDS011;7188;56.070;12.698;2023-08-24T10:19:47;1.53;;;0.50;;
14209;SDS011;7188;56.070;12.698;2023-08-24T10:22:15;1.65;;;0.70;;
14209;SDS011;7188;56.070;12.698;2023-08-24T10:24:40;1.70;;;0.45;;
14209;SDS011;7188;56.070;12.698;2023-08-24T10:27:08;1.63;;;0.40;;
14209;SDS011;7188;56.070;12.698;2023-08-24T10:29:34;2.40;;;0.73;;
14209;SDS011;7188;56.070;12.698;2023-08-24T10:32:00;2.97;;;0.80;;
14209;SDS011;7188;56.070;12.698;2023-08-24T10:34:27;3.55;;;0.70;;
14209;SDS011;7188;56.070;12.698;2023-08-24T10:36:53;2.00;;;0.40;;
14209;SDS011;7188;56.070;12.698;2023-08-24T10:39:26;3.03;;;0.40;;
14209;SDS011;7188;56.070;12.698;2023-08-24T10:41:52;2.83;;;0.30;;
14209;SDS011;7188;56.070;12.698;2023-08-24T10:44:23;3.72;;;0.60;;
14209;SDS011;7188;56.070;12.698;2023-08-24T10:49:43;4.20;;;0.68;;
14209;SDS011;7188;56.070;12.698;2023-08-24T10:52:37;3.78;;;0.43;;
14209;SDS011;7188;56.070;12.698;2023-08-24T10:55:04;3.60;;;0.55;;
14209;SDS011;7188;56.070;12.698;2023-08-24T10:57:51;4.03;;;0.57;;
14209;SDS011;7188;56.070;12.698;2023-08-24T11:00:27;4.57;;;0.70;;
14209;SDS011;7188;56.070;12.698;2023-08-24T11:02:54;1.85;;;0.60;;
14209;SDS011;7188;56.070;12.698;2023-08-24T11:08:10;1.50;;;0.50;;
14209;SDS011;7188;56.070;12.698;2023-08-24T11:13:17;1.80;;;0.50;;
14209;SDS011;7188;56.070;12.698;2023-08-24T11:18:11;2.25;;;0.60;;
14209;SDS011;7188;56.070;12.698;2023-08-24T11:21:00;3.78;;;0.50;;
14209;SDS011;7188;56.070;12.698;2023-08-24T11:23:27;3.67;;;0.93;;
14209;SDS011;7188;56.070;12.698;2023-08-24T11:25:54;4.53;;;1.00;;
14209;SDS011;7188;56.070;12.698;2023-08-24T11:28:23;3.63;;;0.63;;
14209;SDS011;7188;56.070;12.698;2023-08-24T11:30:50;3.40;;;0.60;;
14209;SDS011;7188;56.070;12.698;2023-08-24T11:33:18;3.45;;;0.47;;
14209;SDS011;7188;56.070;12.698;2023-08-24T11:35:55;4.82;;;0.63;;
14209;SDS011;7188;56.070;12.698;2023-08-24T11:38:22;3.95;;;0.85;;
14209;SDS011;7188;56.070;12.698;2023-08-24T11:40:48;3.47;;;0.73;;
14209;SDS011;7188;56.070;12.698;2023-08-24T11:43:21;3.63;;;0.70;;
14209;SDS011;7188;56.070;12.698;2023-08-24T11:45:50;6.60;;;0.65;;
14209;SDS011;7188;56.070;12.698;2023-08-24T11:48:15;2.60;;;1.20;;
14209;SDS011;7188;56.070;12.698;2023-08-24T11:50:41;3.67;;;0.60;;
14209;SDS011;7188;56.070;12.698;2023-08-24T11:53:07;3.20;;;0.75;;
14209;SDS011;7188;56.070;12.698;2023-08-24T11:55:32;2.13;;;1.15;;
14209;SDS011;7188;56.070;12.698;2023-08-24T11:57:59;5.75;;;0.85;;
14209;SDS011;7188;56.070;12.698;2023-08-24T12:00:25;3.63;;;0.73;;
14209;SDS011;7188;56.070;12.698;2023-08-24T12:02:51;2.92;;;0.60;;
14209;SDS011;7188;56.070;12.698;2023-08-24T12:05:24;2.20;;;0.55;;
14209;SDS011;7188;56.070;12.698;2023-08-24T12:07:51;5.53;;;0.50;;
14209;SDS011;7188;56.070;12.698;2023-08-24T12:10:18;5.25;;;0.63;;
14209;SDS011;7188;56.070;12.698;2023-08-24T12:12:45;4.07;;;0.75;;
14209;SDS011;7188;56.070;12.698;2023-08-24T12:15:17;3.55;;;0.50;;
14209;SDS011;7188;56.070;12.698;2023-08-24T12:17:48;2.83;;;0.65;;
14209;SDS011;7188;56.070;12.698;2023-08-24T12:20:18;3.45;;;0.70;;
14209;SDS011;7188;56.070;12.698;2023-08-24T12:28:32;2.53;;;0.63;;
14209;SDS011;7188;56.070;12.698;2023-08-24T12:30:58;1.13;;;0.60;;
14209;SDS011;7188;56.070;12.698;2023-08-24T12:33:30;2.55;;;0.65;;
14209;SDS011;7188;56.070;12.698;2023-08-24T12:35:57;2.72;;;0.70;;
14209;SDS011;7188;56.070;12.698;2023-08-24T12:38:35;4.47;;;0.60;;
14209;SDS011;7188;56.070;12.698;2023-08-24T12:41:00;4.35;;;0.95;;
14209;SDS011;7188;56.070;12.698;2023-08-24T12:43:26;3.75;;;0.75;;
14209;SDS011;7188;56.070;12.698;2023-08-24T12:45:52;2.92;;;0.73;;
14209;SDS011;7188;56.070;12.698;2023-08-24T12:48:33;2.40;;;0.45;;
14209;SDS011;7188;56.070;12.698;2023-08-24T12:50:59;3.15;;;0.82;;
14209;SDS011;7188;56.070;12.698;2023-08-24T12:53:24;3.42;;;0.50;;
14209;SDS011;7188;56.070;12.698;2023-08-24T12:55:50;3.92;;;0.60;;
14209;SDS011;7188;56.070;12.698;2023-08-24T12:58:15;3.05;;;0.50;;
14209;SDS011;7188;56.070;12.698;2023-08-24T13:00:41;3.53;;;0.60;;
14209;SDS011;7188;56.070;12.698;2023-08-24T13:03:07;2.25;;;0.63;;
14209;SDS011;7188;56.070;12.698;2023-08-24T13:05:32;0.88;;;0.50;;
14209;SDS011;7188;56.070;12.698;2023-08-24T13:07:58;1.58;;;0.50;;
14209;SDS011;7188;56.070;12.698;2023-08-24T13:10:24;2.10;;;0.50;;
14209;SDS011;7188;56.070;12.698;2023-08-24T13:12:50;2.05;;;0.43;;
14209;SDS011;7188;56.070;12.698;2023-08-24T13:15:15;3.88;;;0.60;;
14209;SDS011;7188;56.070;12.698;2023-08-24T13:17:41;1.13;;;0.40;;
14209;SDS011;7188;56.070;12.698;2023-08-24T13:20:07;6.55;;;0.77;;
14209;SDS011;7188;56.070;12.698;2023-08-24T13:22:33;1.58;;;0.50;;
14209;SDS011;7188;56.070;12.698;2023-08-24T13:24:58;2.25;;;0.50;;
14209;SDS011;7188;56.070;12.698;2023-08-24T13:27:24;3.05;;;0.50;;
14209;SDS011;7188;56.070;12.698;2023-08-24T13:29:50;2.85;;;0.52;;
14209;SDS011;7188;56.070;12.698;2023-08-24T13:32:16;3.00;;;0.43;;
14209;SDS011;7188;56.070;12.698;2023-08-24T13:34:41;1.38;;;0.50;;
14209;SDS011;7188;56.070;12.698;2023-08-24T13:37:07;0.85;;;0.50;;
14209;SDS011;7188;56.070;12.698;2023-08-24T13:39:32;4.53;;;0.60;;
14209;SDS011;7188;56.070;12.698;2023-08-24T13:41:58;3.30;;;0.43;;
14209;SDS011;7188;56.070;12.698;2023-08-24T13:44:24;1.67;;;0.50;;
14209;SDS011;7188;56.070;12.698;2023-08-24T13:46:51;1.80;;;0.65;;
14209;SDS011;7188;56.070;12.698;2023-08-24T13:49:18;3.88;;;0.50;;
14209;SDS011;7188;56.070;12.698;2023-08-24T13:51:44;1.92;;;0.60;;
14209;SDS011;7188;56.070;12.698;2023-08-24T13:54:16;2.33;;;0.60;;
14209;SDS011;7188;56.070;12.698;2023-08-24T13:56:43;2.92;;;0.50;;
14209;SDS011;7188;56.070;12.698;2023-08-24T13:59:10;0.50;;;0.50;;
14209;SDS011;7188;56.070;12.698;2023-08-24T14:01:36;2.60;;;0.50;;
14209;SDS011;7188;56.070;12.698;2023-08-24T14:04:02;1.45;;;0.40;;
14209;SDS011;7188;56.070;12.698;2023-08-24T14:06:31;2.92;;;0.63;;
14209;SDS011;7188;56.070;12.698;2023-08-24T14:09:00;3.08;;;0.60;;
14209;SDS011;7188;56.070;12.698;2023-08-24T14:11:25;2.08;;;0.50;;
14209;SDS011;7188;56.070;12.698;2023-08-24T14:13:52;3.95;;;0.50;;
14209;SDS011;7188;56.070;12.698;2023-08-24T14:16:18;2.97;;;0.65;;
14209;SDS011;7188;56.070;12.698;2023-08-24T14:18:47;3.67;;;0.93;;
14209;SDS011;7188;56.070;12.698;2023-08-24T14:21:13;3.50;;;0.70;;
14209;SDS011;7188;56.070;12.698;2023-08-24T14:23:40;1.80;;;0.50;;
14209;SDS011;7188;56.070;12.698;2023-08-24T14:26:05;2.17;;;0.50;;
14209;SDS011;7188;56.070;12.698;2023-08-24T14:31:16;4.75;;;0.70;;
14209;SDS011;7188;56.070;12.698;2023-08-24T14:33:42;1.25;;;0.50;;
14209;SDS011;7188;56.070;12.698;2023-08-24T14:36:08;1.55;;;0.75;;
14209;SDS011;7188;56.070;12.698;2023-08-24T14:38:35;1.48;;;0.52;;
14209;SDS011;7188;56.070;12.698;2023-08-24T14:41:03;2.88;;;0.52;;
14209;SDS011;7188;56.070;12.698;2023-08-24T14:43:29;2.13;;;0.40;;
14209;SDS011;7188;56.070;12.698;2023-08-24T14:45:54;2.67;;;0.50;;
14209;SDS011;7188;56.070;12.698;2023-08-24T14:48:20;1.73;;;0.70;;
14209;SDS011;7188;56.070;12.698;2023-08-24T14:50:45;2.20;;;0.50;;
14209;SDS011;7188;56.070;12.698;2023-08-24T14:53:11;3.55;;;0.90;;
14209;SDS011;7188;56.070;12.698;2023-08-24T14:55:37;1.48;;;0.40;;
14209;SDS011;7188;56.070;12.698;2023-08-24T14:58:03;4.28;;;0.70;;
14209;SDS011;7188;56.070;12.698;2023-08-24T15:00:29;2.75;;;0.40;;
14209;SDS011;7188;56.070;12.698;2023-08-24T15:02:54;1.75;;;0.55;;
14209;SDS011;7188;56.070;12.698;2023-08-24T15:05:21;4.13;;;0.50;;
14209;SDS011;7188;56.070;12.698;2023-08-24T15:07:47;1.00;;;0.40;;
14209;SDS011;7188;56.070;12.698;2023-08-24T15:10:12;0.70;;;0.47;;
14209;SDS011;7188;56.070;12.698;2023-08-24T15:12:38;2.60;;;0.60;;
14209;SDS011;7188;56.070;12.698;2023-08-24T15:15:04;1.63;;;0.30;;